createdAt,value
2023-05-10T00:00:30.232Z,14.85
2023-05-10T00:02:57.580Z,15.55
2023-05-10T00:05:24.689Z,14.02
2023-05-10T00:07:51.856Z,14.65
2023-05-10T00:10:19.333Z,14.38
2023-05-10T00:12:46.460Z,14.70
2023-05-10T00:15:13.766Z,15.73
2023-05-10T00:17:41.309Z,14.52
2023-05-10T00:20:09.151Z,14.05
2023-05-10T00:22:36.431Z,16.35
2023-05-10T00:25:03.831Z,17.40
2023-05-10T00:27:30.838Z,17.13
2023-05-10T00:29:58.030Z,18.00
2023-05-10T00:32:25.196Z,17.33
2023-05-10T00:34:52.495Z,19.10
2023-05-10T00:37:19.537Z,18.83
2023-05-10T00:39:46.600Z,19.38
2023-05-10T00:42:13.816Z,17.80
2023-05-10T00:44:40.865Z,19.73
2023-05-10T00:47:08.714Z,18.92
2023-05-10T00:49:37.339Z,18.30
2023-05-10T00:52:04.824Z,19.35
2023-05-10T00:54:32.072Z,18.77
2023-05-10T00:56:59.810Z,19.08
2023-05-10T00:59:27.593Z,18.15
2023-05-10T01:01:55.169Z,18.45
2023-05-10T01:04:26.663Z,19.65
2023-05-10T01:06:54.718Z,18.58
2023-05-10T01:09:23.337Z,19.50
2023-05-10T01:11:51.424Z,19.85
2023-05-10T01:14:20.861Z,19.77
2023-05-10T01:16:50.001Z,19.80
2023-05-10T01:19:29.287Z,19.90
2023-05-10T01:22:39.625Z,19.00
2023-05-10T01:25:31.375Z,19.85
2023-05-10T01:28:29.127Z,20.50
2023-05-10T01:31:31.283Z,20.00
2023-05-10T01:34:17.300Z,19.83
2023-05-10T01:36:59.807Z,19.92
2023-05-10T01:39:46.269Z,20.50
2023-05-10T01:42:28.410Z,20.30
2023-05-10T01:45:01.445Z,21.13
2023-05-10T01:47:41.485Z,20.40
2023-05-10T01:50:17.118Z,20.08
2023-05-10T01:52:51.053Z,21.38
2023-05-10T01:55:21.391Z,21.13
2023-05-10T01:57:53.630Z,21.88
2023-05-10T02:00:21.883Z,22.45
2023-05-10T02:02:50.818Z,22.08
2023-05-10T02:05:19.188Z,20.58
2023-05-10T02:07:47.373Z,22.05
2023-05-10T02:10:15.656Z,22.15
2023-05-10T02:12:47.077Z,22.70
2023-05-10T02:15:22.008Z,23.33
2023-05-10T02:17:50.105Z,23.40
2023-05-10T02:20:20.202Z,23.55
2023-05-10T02:22:50.473Z,22.67
2023-05-10T02:25:20.276Z,24.27
2023-05-10T02:27:49.203Z,24.23
2023-05-10T02:30:18.815Z,25.88
2023-05-10T02:32:46.523Z,26.50
2023-05-10T02:35:13.841Z,26.52
2023-05-10T02:37:42.149Z,27.20
2023-05-10T02:40:10.343Z,26.98
2023-05-10T02:42:39.859Z,28.83
2023-05-10T02:45:13.495Z,27.27
2023-05-10T02:47:40.907Z,29.48
2023-05-10T02:50:09.238Z,27.13
2023-05-10T02:52:55.425Z,28.67
2023-05-10T02:55:33.401Z,28.17
2023-05-10T02:58:02.908Z,27.55
2023-05-10T03:00:30.575Z,28.63
2023-05-10T03:02:57.802Z,28.83
2023-05-10T03:05:25.024Z,28.35
2023-05-10T03:07:53.252Z,27.63
2023-05-10T03:10:24.232Z,27.73
2023-05-10T03:13:36.296Z,27.85
2023-05-10T03:16:12.807Z,25.92
2023-05-10T03:18:55.954Z,26.33
2023-05-10T03:21:27.141Z,25.98
2023-05-10T03:24:08.698Z,25.17
2023-05-10T03:26:38.240Z,25.85
2023-05-10T03:29:07.275Z,25.42
2023-05-10T03:31:34.474Z,24.60
2023-05-10T03:34:02.285Z,23.65
2023-05-10T03:36:29.437Z,23.42
2023-05-10T03:38:56.478Z,23.98
2023-05-10T03:41:23.616Z,24.08
2023-05-10T03:43:50.630Z,23.38
2023-05-10T03:46:17.675Z,25.13
2023-05-10T03:48:44.866Z,24.33
2023-05-10T03:51:11.985Z,24.63
2023-05-10T03:53:38.997Z,24.48
2023-05-10T03:56:06.218Z,25.15
2023-05-10T03:58:33.471Z,22.15
2023-05-10T04:01:00.627Z,25.02
2023-05-10T04:03:27.796Z,25.50
2023-05-10T04:06:02.884Z,24.10
2023-05-10T04:08:30.262Z,25.38
2023-05-10T04:11:10.647Z,26.63
2023-05-10T04:13:38.225Z,28.77
2023-05-10T04:16:06.380Z,28.73
2023-05-10T04:18:33.731Z,29.63
2023-05-10T04:21:00.792Z,31.27
2023-05-10T04:23:28.811Z,32.08
2023-05-10T04:26:03.079Z,31.30
2023-05-10T04:28:30.174Z,31.20
2023-05-10T04:31:11.423Z,30.92
2023-05-10T04:33:38.552Z,30.83
2023-05-10T04:36:06.347Z,32.13
2023-05-10T04:38:33.414Z,31.58
2023-05-10T04:41:09.046Z,32.55
2023-05-10T04:43:37.264Z,30.90
2023-05-10T04:46:05.304Z,30.83
2023-05-10T04:48:32.452Z,32.67
2023-05-10T04:50:59.539Z,32.33
2023-05-10T04:53:26.790Z,31.30
2023-05-10T04:55:53.957Z,31.58
2023-05-10T04:58:21.001Z,29.95
2023-05-10T05:00:48.142Z,31.88
2023-05-10T05:03:15.392Z,31.20
2023-05-10T05:05:42.555Z,29.75
2023-05-10T05:08:09.932Z,31.52
2023-05-10T05:10:37.064Z,28.58
2023-05-10T05:13:04.152Z,28.80
2023-05-10T05:15:31.780Z,27.60
2023-05-10T05:17:59.029Z,26.27
2023-05-10T05:20:26.083Z,26.30
2023-05-10T05:22:53.256Z,24.45
2023-05-10T05:25:20.345Z,24.80
2023-05-10T05:27:47.535Z,23.92
2023-05-10T05:30:14.766Z,22.92
2023-05-10T05:32:41.870Z,21.42
2023-05-10T05:35:09.400Z,21.90
2023-05-10T05:37:36.632Z,21.42
2023-05-10T05:40:04.429Z,21.73
2023-05-10T05:42:32.648Z,19.58
2023-05-10T05:45:00.110Z,20.70
2023-05-10T05:47:27.203Z,20.38
2023-05-10T05:49:54.240Z,19.85
2023-05-10T05:52:22.257Z,19.33
2023-05-10T05:54:49.353Z,20.15
2023-05-10T05:57:16.409Z,19.08
2023-05-10T05:59:47.250Z,18.92
2023-05-10T06:02:14.474Z,18.52
2023-05-10T06:04:44.450Z,18.40
2023-05-10T06:07:12.136Z,19.85
2023-05-10T06:09:39.247Z,18.05
2023-05-10T06:12:06.524Z,17.20
2023-05-10T06:14:33.629Z,17.55
2023-05-10T06:17:01.170Z,17.65
2023-05-10T06:19:28.354Z,18.65
2023-05-10T06:21:55.687Z,18.40
2023-05-10T06:24:22.844Z,18.02
2023-05-10T06:26:51.240Z,17.48
2023-05-10T06:29:18.580Z,17.90
2023-05-10T06:31:45.654Z,18.50
2023-05-10T06:34:13.287Z,18.38
2023-05-10T06:36:40.422Z,17.45
2023-05-10T06:39:08.107Z,17.92
2023-05-10T06:41:35.244Z,18.15
2023-05-10T06:44:02.247Z,18.25
2023-05-10T06:46:29.288Z,17.55
2023-05-10T06:48:56.305Z,17.95
2023-05-10T06:51:23.344Z,17.27
2023-05-10T06:53:50.383Z,18.23
2023-05-10T06:56:17.720Z,18.20
2023-05-10T06:58:44.721Z,17.60
2023-05-10T07:01:11.995Z,17.70
2023-05-10T07:03:39.291Z,18.40
2023-05-10T07:06:11.331Z,17.83
2023-05-10T07:08:42.933Z,17.35
2023-05-10T07:11:10.052Z,16.98
2023-05-10T07:13:37.505Z,18.00
2023-05-10T07:16:05.333Z,17.15
2023-05-10T07:18:32.519Z,16.80
2023-05-10T07:20:59.609Z,15.45
2023-05-10T07:23:26.617Z,16.38
2023-05-10T07:25:54.401Z,15.90
2023-05-10T07:28:21.573Z,15.48
2023-05-10T07:30:49.079Z,14.60
2023-05-10T07:33:16.870Z,14.70
2023-05-10T07:35:44.568Z,15.00
2023-05-10T07:38:14.685Z,13.95
2023-05-10T07:40:41.732Z,12.77
2023-05-10T07:43:08.778Z,12.77
2023-05-10T07:45:35.957Z,11.00
2023-05-10T07:48:03.350Z,10.82
2023-05-10T07:50:30.602Z,10.90
2023-05-10T07:52:57.768Z,9.45
2023-05-10T07:55:24.929Z,8.98
2023-05-10T07:57:52.156Z,8.27
2023-05-10T08:00:20.950Z,8.60
2023-05-10T08:02:48.554Z,8.98
2023-05-10T08:05:16.427Z,7.75
2023-05-10T08:07:43.905Z,7.63
2023-05-10T08:10:12.352Z,8.07
2023-05-10T08:12:39.741Z,7.40
2023-05-10T08:15:08.080Z,6.55
2023-05-10T08:17:35.272Z,6.68
2023-05-10T08:20:02.524Z,6.28
2023-05-10T08:22:29.640Z,5.88
2023-05-10T08:24:56.835Z,6.20
2023-05-10T08:27:24.002Z,7.70
2023-05-10T08:29:51.124Z,6.90
2023-05-10T08:32:19.160Z,6.38
2023-05-10T08:34:46.350Z,6.43
2023-05-10T08:37:14.601Z,6.82
2023-05-10T08:39:42.148Z,7.07
2023-05-10T08:42:10.144Z,6.72
2023-05-10T08:44:38.042Z,6.22
2023-05-10T08:47:10.253Z,6.03
2023-05-10T08:49:38.791Z,6.05
2023-05-10T08:52:06.961Z,6.20
2023-05-10T08:54:35.999Z,6.18
2023-05-10T08:57:04.564Z,5.43
2023-05-10T08:59:31.946Z,6.32
2023-05-10T09:02:00.582Z,6.63
2023-05-10T09:04:30.617Z,5.85
2023-05-10T09:06:58.131Z,6.60
2023-05-10T09:09:26.332Z,5.90
2023-05-10T09:11:54.359Z,6.07
2023-05-10T09:14:21.515Z,6.13
2023-05-10T09:16:48.970Z,5.88
2023-05-10T09:19:16.335Z,6.60
2023-05-10T09:21:44.186Z,7.13
2023-05-10T09:24:11.490Z,5.72
2023-05-10T09:26:49.552Z,6.70
2023-05-10T09:29:17.679Z,6.35
2023-05-10T09:31:53.554Z,6.68
2023-05-10T09:34:31.849Z,6.43
2023-05-10T09:37:02.400Z,6.53
2023-05-10T09:39:38.426Z,7.68
2023-05-10T09:42:11.650Z,6.95
2023-05-10T09:44:39.389Z,7.53
2023-05-10T09:47:06.603Z,6.72
2023-05-10T09:49:34.328Z,6.82
2023-05-10T09:52:06.529Z,6.63
2023-05-10T09:54:35.167Z,6.63
2023-05-10T09:57:02.479Z,6.15
2023-05-10T09:59:30.553Z,6.28
2023-05-10T10:02:00.730Z,5.90
2023-05-10T10:04:28.488Z,5.43
2023-05-10T10:07:06.263Z,4.97
2023-05-10T10:09:35.026Z,5.05
2023-05-10T10:12:03.411Z,4.90
2023-05-10T10:14:31.146Z,4.20
2023-05-10T10:17:06.727Z,4.55
2023-05-10T10:19:38.291Z,3.63
2023-05-10T10:22:06.822Z,3.58
2023-05-10T10:24:34.406Z,3.17
2023-05-10T10:27:22.674Z,3.58
2023-05-10T10:30:17.694Z,3.20
2023-05-10T10:33:07.955Z,3.10
2023-05-10T10:35:46.868Z,2.97
2023-05-10T10:38:15.067Z,3.95
2023-05-10T10:40:42.084Z,5.22
2023-05-10T10:43:30.003Z,6.60
2023-05-10T10:46:26.524Z,8.35
2023-05-10T10:49:12.101Z,8.52
2023-05-10T10:51:40.222Z,7.82
2023-05-10T10:54:12.029Z,8.57
2023-05-10T10:56:39.340Z,7.80
2023-05-10T10:59:06.380Z,8.75
2023-05-10T11:01:36.849Z,9.85
2023-05-10T11:04:04.563Z,9.63
2023-05-10T11:06:37.071Z,10.23
2023-05-10T11:09:10.489Z,9.88
2023-05-10T11:11:49.380Z,10.15
2023-05-10T11:14:23.533Z,9.63
2023-05-10T11:16:52.490Z,8.63
2023-05-10T11:19:20.866Z,8.18
2023-05-10T11:22:05.858Z,8.35
2023-05-10T11:24:34.534Z,8.18
2023-05-10T11:27:02.078Z,10.07
2023-05-10T11:29:29.178Z,11.40
2023-05-10T11:32:00.238Z,10.52
2023-05-10T11:34:36.239Z,10.93
2023-05-10T11:37:03.409Z,11.55
2023-05-10T11:39:32.982Z,11.90
2023-05-10T11:42:00.531Z,10.35
2023-05-10T11:44:32.348Z,10.35
2023-05-10T11:47:03.332Z,10.95
2023-05-10T11:49:30.402Z,10.00
2023-05-10T11:52:12.040Z,9.93
2023-05-10T11:54:39.197Z,10.02
2023-05-10T11:57:06.221Z,10.05
2023-05-10T11:59:33.318Z,10.05
2023-05-10T12:02:00.830Z,9.30
2023-05-10T12:04:30.492Z,11.05
2023-05-10T12:06:57.866Z,9.70
2023-05-10T12:09:39.597Z,10.18
2023-05-10T12:12:11.145Z,10.10
2023-05-10T12:14:38.268Z,9.38
2023-05-10T12:17:05.569Z,9.75
2023-05-10T12:19:40.273Z,9.18
2023-05-10T12:22:07.728Z,9.55
2023-05-10T12:24:39.847Z,8.65
2023-05-10T12:27:09.433Z,9.40
2023-05-10T12:29:36.990Z,9.43
2023-05-10T12:32:04.271Z,9.88
2023-05-10T12:34:39.647Z,10.55
2023-05-10T12:37:09.829Z,9.35
2023-05-10T12:39:45.178Z,9.52
2023-05-10T12:42:12.417Z,9.25
2023-05-10T12:44:41.162Z,8.50
2023-05-10T12:47:08.528Z,8.73
2023-05-10T12:49:36.044Z,8.77
2023-05-10T12:52:03.306Z,9.30
2023-05-10T12:54:30.445Z,8.30
2023-05-10T12:56:57.508Z,8.77
2023-05-10T12:59:26.218Z,5.70
2023-05-10T13:01:53.306Z,5.65
2023-05-10T13:04:20.892Z,4.68
2023-05-10T13:06:48.002Z,3.40
2023-05-10T13:09:15.091Z,3.80
2023-05-10T13:11:42.441Z,3.30
2023-05-10T13:14:09.553Z,4.55
2023-05-10T13:16:36.774Z,4.40
2023-05-10T13:19:04.040Z,5.03
2023-05-10T13:21:31.469Z,5.38
2023-05-10T13:23:58.936Z,5.30
2023-05-10T13:26:26.739Z,5.25
2023-05-10T13:28:53.722Z,5.93
2023-05-10T13:31:21.662Z,5.07
2023-05-10T13:33:48.734Z,5.13
2023-05-10T13:36:16.135Z,5.13
2023-05-10T13:38:43.256Z,6.60
2023-05-10T13:41:11.629Z,6.75
2023-05-10T13:43:40.196Z,7.68
2023-05-10T13:46:07.222Z,8.95
2023-05-10T13:48:35.237Z,9.63
2023-05-10T13:51:03.595Z,9.90
2023-05-10T13:53:30.809Z,10.00
2023-05-10T13:55:58.221Z,9.10
2023-05-10T13:58:25.441Z,6.95
2023-05-10T14:00:52.463Z,6.32
2023-05-10T14:03:19.638Z,5.82
2023-05-10T14:05:46.758Z,5.72
2023-05-10T14:08:15.347Z,5.10
2023-05-10T14:10:43.030Z,4.72
2023-05-10T14:13:10.046Z,4.43
2023-05-10T14:15:37.162Z,4.00
2023-05-10T14:18:04.323Z,5.30
2023-05-10T14:20:33.111Z,4.55
2023-05-10T14:23:00.833Z,3.60
2023-05-10T14:25:27.936Z,4.25
2023-05-10T14:27:55.791Z,3.80
2023-05-10T14:30:22.857Z,3.40
2023-05-10T14:32:50.086Z,3.05
2023-05-10T14:35:19.456Z,3.15
2023-05-10T14:37:47.018Z,2.50
2023-05-10T14:40:15.152Z,2.30
2023-05-10T14:42:44.114Z,1.67
2023-05-10T14:45:13.041Z,1.70
2023-05-10T14:47:40.111Z,2.20
2023-05-10T14:50:08.057Z,2.15
2023-05-10T14:52:35.115Z,3.33
2023-05-10T14:55:02.360Z,3.28
2023-05-10T14:57:30.661Z,3.40
2023-05-10T14:59:58.077Z,3.80
2023-05-10T15:02:25.666Z,3.70
2023-05-10T15:04:53.169Z,3.47
2023-05-10T15:07:20.771Z,3.45
2023-05-10T15:09:47.839Z,3.40
2023-05-10T15:12:14.906Z,3.60
2023-05-10T15:14:41.924Z,3.90
2023-05-10T15:17:09.002Z,4.00
2023-05-10T15:19:37.031Z,4.18
2023-05-10T15:22:06.286Z,3.65
2023-05-10T15:24:33.552Z,4.50
2023-05-10T15:27:01.121Z,4.63
2023-05-10T15:29:28.268Z,4.47
2023-05-10T15:31:55.337Z,4.47
2023-05-10T15:34:22.389Z,4.45
2023-05-10T15:36:49.517Z,4.30
2023-05-10T15:39:16.569Z,4.28
2023-05-10T15:41:46.022Z,4.90
2023-05-10T15:44:13.009Z,4.28
2023-05-10T15:46:40.133Z,4.20
2023-05-10T15:49:07.551Z,3.78
2023-05-10T15:51:36.526Z,4.45
2023-05-10T15:54:07.742Z,4.35
2023-05-10T15:56:35.314Z,4.72
2023-05-10T15:59:03.260Z,4.65
2023-05-10T16:01:31.331Z,4.40
2023-05-10T16:03:58.370Z,4.97
2023-05-10T16:06:25.411Z,4.43
2023-05-10T16:08:54.644Z,5.13
2023-05-10T16:11:22.110Z,5.47
2023-05-10T16:13:49.151Z,5.70
2023-05-10T16:16:16.438Z,7.85
2023-05-10T16:18:43.759Z,5.50
2023-05-10T16:21:11.018Z,3.92
2023-05-10T16:23:38.130Z,4.57
2023-05-10T16:26:05.124Z,4.38
2023-05-10T16:28:32.374Z,4.40
2023-05-10T16:30:59.459Z,4.30
2023-05-10T16:33:26.836Z,4.13
2023-05-10T16:35:53.798Z,3.50
2023-05-10T16:38:21.801Z,3.65
2023-05-10T16:40:48.876Z,4.10
2023-05-10T16:43:16.065Z,4.70
2023-05-10T16:45:43.132Z,4.35
2023-05-10T16:48:10.244Z,4.32
2023-05-10T16:50:37.338Z,4.00
2023-05-10T16:53:04.340Z,4.75
2023-05-10T16:55:32.565Z,4.53
2023-05-10T16:58:00.920Z,4.20
2023-05-10T17:00:27.979Z,4.43
2023-05-10T17:02:55.346Z,4.55
2023-05-10T17:05:23.228Z,4.38
2023-05-10T17:07:50.880Z,4.68
2023-05-10T17:10:18.076Z,4.57
2023-05-10T17:12:45.575Z,4.38
2023-05-10T17:15:13.595Z,4.25
2023-05-10T17:17:40.686Z,4.65
2023-05-10T17:20:09.174Z,4.90
2023-05-10T17:22:36.215Z,5.47
2023-05-10T17:25:04.178Z,5.38
2023-05-10T17:27:31.575Z,6.18
2023-05-10T17:29:58.866Z,5.18
2023-05-10T17:32:26.491Z,5.60
2023-05-10T17:34:53.582Z,5.72
2023-05-10T17:37:20.690Z,5.85
2023-05-10T17:39:47.708Z,5.50
2023-05-10T17:42:17.554Z,6.03
2023-05-10T17:44:44.586Z,5.85
2023-05-10T17:47:11.684Z,6.18
2023-05-10T17:49:39.865Z,6.38
2023-05-10T17:52:07.402Z,5.93
2023-05-10T17:54:34.511Z,6.75
2023-05-10T17:57:01.864Z,7.07
2023-05-10T17:59:28.936Z,6.80
2023-05-10T18:01:57.421Z,6.22
2023-05-10T18:04:24.509Z,6.85
2023-05-10T18:06:51.785Z,7.20
2023-05-10T18:09:21.166Z,7.47
2023-05-10T18:11:48.147Z,6.90
2023-05-10T18:14:20.579Z,7.13
2023-05-10T18:16:55.839Z,7.43
2023-05-10T18:19:25.013Z,7.70
2023-05-10T18:21:52.481Z,8.77
2023-05-10T18:24:34.219Z,7.68
2023-05-10T18:27:05.927Z,8.52
2023-05-10T18:29:33.351Z,8.15
2023-05-10T18:32:00.516Z,7.68
2023-05-10T18:34:27.876Z,8.23
2023-05-10T18:36:54.960Z,7.85
2023-05-10T18:39:21.979Z,8.18
2023-05-10T18:41:50.163Z,7.63
2023-05-10T18:44:18.801Z,7.25
2023-05-10T18:46:46.341Z,7.50
2023-05-10T18:49:13.601Z,7.40
2023-05-10T18:51:40.643Z,7.65
2023-05-10T18:54:07.712Z,7.63
2023-05-10T18:56:34.825Z,7.50
2023-05-10T18:59:01.905Z,7.70
2023-05-10T19:01:29.019Z,7.50
2023-05-10T19:03:56.121Z,7.78
2023-05-10T19:06:23.431Z,7.10
2023-05-10T19:08:50.877Z,8.15
2023-05-10T19:11:18.940Z,8.18
2023-05-10T19:13:46.418Z,8.27
2023-05-10T19:16:23.208Z,7.30
2023-05-10T19:18:51.268Z,7.80
2023-05-10T19:21:18.532Z,7.75
2023-05-10T19:23:46.267Z,8.05
2023-05-10T19:26:14.094Z,7.47
2023-05-10T19:28:42.075Z,8.30
2023-05-10T19:31:09.161Z,7.97
2023-05-10T19:33:38.331Z,7.75
2023-05-10T19:36:07.209Z,7.43
2023-05-10T19:38:34.758Z,7.97
2023-05-10T19:41:01.880Z,7.55
2023-05-10T19:43:34.327Z,8.00
2023-05-10T19:46:02.874Z,8.68
2023-05-10T19:48:30.945Z,7.88
2023-05-10T19:51:03.739Z,8.40
2023-05-10T19:53:32.169Z,8.25
2023-05-10T19:56:06.708Z,7.75
2023-05-10T19:58:34.476Z,7.80
2023-05-10T20:01:02.115Z,8.07
2023-05-10T20:03:29.395Z,7.75
2023-05-10T20:05:56.566Z,8.13
2023-05-10T20:08:23.527Z,7.75
2023-05-10T20:10:50.714Z,8.10
2023-05-10T20:13:17.965Z,8.35
2023-05-10T20:15:46.192Z,7.65
2023-05-10T20:18:13.264Z,7.78
2023-05-10T20:20:40.453Z,7.93
2023-05-10T20:23:07.587Z,8.05
2023-05-10T20:25:34.618Z,8.50
2023-05-10T20:28:03.632Z,8.68
2023-05-10T20:30:30.933Z,9.20
2023-05-10T20:32:58.008Z,9.35
2023-05-10T20:35:25.078Z,9.18
2023-05-10T20:37:52.080Z,9.73
2023-05-10T20:40:19.342Z,9.93
2023-05-10T20:42:47.597Z,8.93
2023-05-10T20:45:14.786Z,9.82
2023-05-10T20:47:41.963Z,9.52
2023-05-10T20:50:09.469Z,9.68
2023-05-10T20:52:36.483Z,10.30
2023-05-10T20:55:03.741Z,9.98
2023-05-10T20:57:30.850Z,9.93
2023-05-10T20:59:57.907Z,9.68
2023-05-10T21:02:24.910Z,10.02
2023-05-10T21:04:52.385Z,10.90
2023-05-10T21:07:19.457Z,10.73
2023-05-10T21:09:46.453Z,10.63
2023-05-10T21:12:13.590Z,10.88
2023-05-10T21:14:40.663Z,11.63
2023-05-10T21:17:07.672Z,11.57
2023-05-10T21:19:34.687Z,12.35
2023-05-10T21:22:02.143Z,11.88
2023-05-10T21:24:29.228Z,11.25
2023-05-10T21:26:56.247Z,10.93
2023-05-10T21:29:23.213Z,11.07
2023-05-10T21:31:51.210Z,11.35
2023-05-10T21:34:18.320Z,10.88
2023-05-10T21:36:45.384Z,10.88
2023-05-10T21:39:12.586Z,11.88
2023-05-10T21:41:39.568Z,10.57
2023-05-10T21:44:06.675Z,10.27
2023-05-10T21:46:33.678Z,10.95
2023-05-10T21:49:00.736Z,10.27
2023-05-10T21:51:29.175Z,9.85
2023-05-10T21:53:56.576Z,10.52
2023-05-10T21:56:23.616Z,11.20
2023-05-10T21:58:50.837Z,10.93
2023-05-10T22:01:18.074Z,11.27
2023-05-10T22:03:45.444Z,10.38
2023-05-10T22:06:12.990Z,11.02
2023-05-10T22:08:39.992Z,10.55
2023-05-10T22:11:07.013Z,10.55
2023-05-10T22:13:34.018Z,10.45
2023-05-10T22:16:01.465Z,10.48
2023-05-10T22:18:28.529Z,10.45
2023-05-10T22:20:55.596Z,12.40
2023-05-10T22:23:22.830Z,11.48
2023-05-10T22:25:49.796Z,10.70
2023-05-10T22:28:16.798Z,11.60
2023-05-10T22:30:44.172Z,12.60
2023-05-10T22:33:11.203Z,11.88
2023-05-10T22:35:38.133Z,12.13
2023-05-10T22:38:05.356Z,12.43
2023-05-10T22:40:32.692Z,11.48
2023-05-10T22:42:59.692Z,12.00
2023-05-10T22:45:27.190Z,11.70
2023-05-10T22:47:54.407Z,12.18
2023-05-10T22:50:21.748Z,12.40
2023-05-10T22:52:48.715Z,12.02
2023-05-10T22:55:15.782Z,12.95
2023-05-10T22:57:42.962Z,11.65
2023-05-10T23:00:10.757Z,12.43
2023-05-10T23:02:37.839Z,13.13
2023-05-10T23:05:05.770Z,12.57
2023-05-10T23:07:32.985Z,13.25
2023-05-10T23:09:59.978Z,12.98
2023-05-10T23:12:26.977Z,13.15
2023-05-10T23:14:54.985Z,13.48
2023-05-10T23:17:22.130Z,13.38
2023-05-10T23:19:49.071Z,13.13
2023-05-10T23:22:16.065Z,14.27
2023-05-10T23:24:43.177Z,12.40
2023-05-10T23:27:11.399Z,13.55
2023-05-10T23:29:38.425Z,14.27
2023-05-10T23:32:05.839Z,13.70
2023-05-10T23:34:32.928Z,13.80
2023-05-10T23:37:00.242Z,13.00
2023-05-10T23:39:27.248Z,13.07
2023-05-10T23:41:54.718Z,13.98
2023-05-10T23:44:21.946Z,13.25
2023-05-10T23:46:48.919Z,12.80
2023-05-10T23:49:17.328Z,13.38
2023-05-10T23:51:44.356Z,13.00
2023-05-10T23:54:11.361Z,13.65
2023-05-10T23:56:38.472Z,13.27
2023-05-10T23:59:06.598Z,14.05
